AAL2951 KBOS-KDCA
Flight info
| Callsign | AAL2951 |
|---|---|
| Flight time | 1h 32m |
| Altitude | 36000 |
| Route | SSOXS7 SSOXS Q167 ZIZZI KNUKK ATR LAFLN DEALE3 |
| Aircraft | A319/M-SDE3FGHIRWY/LB1 |
Departure
| Time | 2026-05-05 13:25 |
|---|---|
| Airport | Boston Logan International Airport (KBOS) |
Arrival
| Time | 2026-05-05 14:58 |
|---|---|
| Airport | Ronald Reagan Washington National Airport (KDCA) |
| Time | Latitude | Longitude | Altitude | Speed | Heading |
|---|---|---|---|---|---|
| 2026-05-05 13:01 | 42.36511 | -71.01446 | 26 ft | 0 kts | 325° |
| 2026-05-05 13:16 | 42.36504 | -71.01439 | 29 ft | 4 kts | 326° |
| 2026-05-05 13:17 | 42.36481 | -71.01420 | 29 ft | 4 kts | 332° |
| 2026-05-05 13:17 | 42.36457 | -71.01405 | 26 ft | 4 kts | 340° |
| 2026-05-05 13:17 | 42.36431 | -71.01395 | 31 ft | 4 kts | 355° |
| 2026-05-05 13:17 | 42.36409 | -71.01397 | 30 ft | 1 kts | 20° |
| 2026-05-05 13:20 | 42.36412 | -71.01396 | 29 ft | 0 kts | 20° |
| 2026-05-05 13:20 | 42.36416 | -71.01394 | 28 ft | 3 kts | 20° |
| 2026-05-05 13:20 | 42.36461 | -71.01369 | 28 ft | 11 kts | 23° |
| 2026-05-05 13:21 | 42.36529 | -71.01328 | 27 ft | 13 kts | 26° |
| 2026-05-05 13:21 | 42.36635 | -71.01272 | 26 ft | 19 kts | 14° |
| 2026-05-05 13:21 | 42.36770 | -71.01261 | 26 ft | 20 kts | 335° |
| 2026-05-05 13:21 | 42.36884 | -71.01229 | 26 ft | 19 kts | 39° |
| 2026-05-05 13:22 | 42.36987 | -71.01115 | 26 ft | 21 kts | 34° |
| 2026-05-05 13:22 | 42.37122 | -71.01025 | 27 ft | 22 kts | 25° |
| 2026-05-05 13:22 | 42.37237 | -71.00949 | 27 ft | 6 kts | 26° |
| 2026-05-05 13:22 | 42.37240 | -71.00947 | 29 ft | 0 kts | 26° |
| 2026-05-05 13:23 | 42.37257 | -71.00936 | 26 ft | 7 kts | 26° |
| 2026-05-05 13:23 | 42.37325 | -71.00897 | 26 ft | 15 kts | 21° |
| 2026-05-05 13:23 | 42.37443 | -71.00841 | 28 ft | 22 kts | 20° |
| 2026-05-05 13:23 | 42.37597 | -71.00765 | 27 ft | 23 kts | 19° |
| 2026-05-05 13:24 | 42.37727 | -71.00702 | 28 ft | 16 kts | 21° |
| 2026-05-05 13:24 | 42.37833 | -71.00632 | 26 ft | 20 kts | 50° |
| 2026-05-05 13:24 | 42.37799 | -71.00487 | 27 ft | 18 kts | 145° |
| 2026-05-05 13:24 | 42.37734 | -71.00502 | 27 ft | 11 kts | 200° |
| 2026-05-05 13:25 | 42.37711 | -71.00513 | 28 ft | 19 kts | 200° |
| 2026-05-05 13:25 | 42.37364 | -71.00679 | 28 ft | 85 kts | 199° |
| 2026-05-05 13:25 | 42.36617 | -71.01043 | 35 ft | 140 kts | 201° |
| 2026-05-05 13:25 | 42.35310 | -71.01676 | 679 ft | 155 kts | 201° |
| 2026-05-05 13:26 | 42.34225 | -71.01687 | 1435 ft | 167 kts | 167° |
| 2026-05-05 13:26 | 42.33264 | -71.00595 | 2066 ft | 197 kts | 140° |
| 2026-05-05 13:26 | 42.32659 | -70.99613 | 2339 ft | 213 kts | 137° |
| 2026-05-05 13:26 | 42.31703 | -70.97922 | 2851 ft | 237 kts | 128° |
| 2026-05-05 13:27 | 42.31209 | -70.95728 | 3717 ft | 257 kts | 96° |
| 2026-05-05 13:27 | 42.31446 | -70.93203 | 4271 ft | 286 kts | 79° |
| 2026-05-05 13:27 | 42.31862 | -70.90493 | 5059 ft | 300 kts | 79° |
| 2026-05-05 13:27 | 42.32280 | -70.87709 | 6102 ft | 304 kts | 80° |
| 2026-05-05 13:28 | 42.32692 | -70.84896 | 7116 ft | 308 kts | 81° |
| 2026-05-05 13:28 | 42.32973 | -70.82017 | 8064 ft | 311 kts | 92° |
| 2026-05-05 13:28 | 42.32766 | -70.79105 | 8993 ft | 312 kts | 107° |
| 2026-05-05 13:28 | 42.32064 | -70.76348 | 9919 ft | 310 kts | 121° |
| 2026-05-05 13:29 | 42.31118 | -70.73663 | 10487 ft | 327 kts | 122° |
| 2026-05-05 13:29 | 42.29859 | -70.71013 | 10783 ft | 344 kts | 134° |
| 2026-05-05 13:29 | 42.28137 | -70.68721 | 11285 ft | 350 kts | 148° |
| 2026-05-05 13:29 | 42.26075 | -70.66995 | 11999 ft | 349 kts | 160° |
| 2026-05-05 13:30 | 42.23810 | -70.65843 | 12743 ft | 350 kts | 167° |
| 2026-05-05 13:30 | 42.21492 | -70.64780 | 13507 ft | 354 kts | 167° |
| 2026-05-05 13:30 | 42.19141 | -70.63710 | 14190 ft | 358 kts | 167° |
| 2026-05-05 13:30 | 42.16793 | -70.62714 | 14891 ft | 358 kts | 172° |
| 2026-05-05 13:31 | 42.14347 | -70.62253 | 15594 ft | 354 kts | 182° |
| 2026-05-05 13:31 | 42.11900 | -70.62425 | 15922 ft | 349 kts | 193° |
| 2026-05-05 13:31 | 42.09564 | -70.63219 | 16018 ft | 345 kts | 202° |
| 2026-05-05 13:31 | 42.07292 | -70.64237 | 16036 ft | 344 kts | 201° |
| 2026-05-05 13:32 | 42.05016 | -70.65251 | 16038 ft | 344 kts | 201° |
| 2026-05-05 13:32 | 42.02742 | -70.66259 | 16036 ft | 344 kts | 201° |
| 2026-05-05 13:32 | 42.00466 | -70.67262 | 16037 ft | 344 kts | 201° |
| 2026-05-05 13:32 | 41.98190 | -70.68262 | 16044 ft | 344 kts | 201° |
| 2026-05-05 13:33 | 41.95912 | -70.69260 | 16042 ft | 344 kts | 201° |
| 2026-05-05 13:33 | 41.93637 | -70.70254 | 16046 ft | 344 kts | 201° |
| 2026-05-05 13:33 | 41.91362 | -70.71251 | 16045 ft | 344 kts | 201° |
| 2026-05-05 13:33 | 41.89087 | -70.72252 | 16043 ft | 344 kts | 201° |
| 2026-05-05 13:34 | 41.86813 | -70.73250 | 16047 ft | 344 kts | 201° |
| 2026-05-05 13:34 | 41.84538 | -70.74251 | 16043 ft | 344 kts | 202° |
| 2026-05-05 13:34 | 41.82378 | -70.75583 | 16051 ft | 341 kts | 212° |
| 2026-05-05 13:34 | 41.80343 | -70.77120 | 16044 ft | 341 kts | 212° |
| 2026-05-05 13:35 | 41.78277 | -70.78679 | 16041 ft | 341 kts | 211° |
| 2026-05-05 13:35 | 41.76211 | -70.80234 | 16062 ft | 341 kts | 211° |
| 2026-05-05 13:35 | 41.74140 | -70.81791 | 16063 ft | 341 kts | 211° |
| 2026-05-05 13:35 | 41.72071 | -70.83346 | 16065 ft | 341 kts | 211° |
| 2026-05-05 13:36 | 41.70000 | -70.84899 | 16064 ft | 341 kts | 211° |
| 2026-05-05 13:36 | 41.67928 | -70.86452 | 16062 ft | 341 kts | 211° |
| 2026-05-05 13:36 | 41.65857 | -70.88000 | 16066 ft | 341 kts | 211° |
| 2026-05-05 13:36 | 41.63783 | -70.89550 | 16063 ft | 342 kts | 211° |
| 2026-05-05 13:37 | 41.61708 | -70.91099 | 16065 ft | 342 kts | 211° |
| 2026-05-05 13:37 | 41.59632 | -70.92651 | 16062 ft | 342 kts | 211° |
| 2026-05-05 13:37 | 41.57557 | -70.94203 | 16062 ft | 342 kts | 211° |
| 2026-05-05 13:37 | 41.55563 | -70.95906 | 16066 ft | 340 kts | 220° |
| 2026-05-05 13:38 | 41.53867 | -70.98086 | 16068 ft | 339 kts | 230° |
| 2026-05-05 13:38 | 41.52501 | -71.00646 | 16068 ft | 339 kts | 237° |
| 2026-05-05 13:38 | 41.51202 | -71.03270 | 16070 ft | 339 kts | 236° |
| 2026-05-05 13:38 | 41.49912 | -71.05851 | 16069 ft | 339 kts | 236° |
| 2026-05-05 13:39 | 41.48600 | -71.08460 | 16070 ft | 339 kts | 236° |
| 2026-05-05 13:39 | 41.47286 | -71.11067 | 16081 ft | 339 kts | 236° |
| 2026-05-05 13:39 | 41.45972 | -71.13672 | 16081 ft | 339 kts | 236° |
| 2026-05-05 13:39 | 41.44660 | -71.16276 | 16076 ft | 339 kts | 236° |
| 2026-05-05 13:40 | 41.43349 | -71.18883 | 16081 ft | 339 kts | 236° |
| 2026-05-05 13:40 | 41.42037 | -71.21491 | 16084 ft | 339 kts | 236° |
| 2026-05-05 13:40 | 41.40723 | -71.24099 | 16083 ft | 339 kts | 236° |
| 2026-05-05 13:40 | 41.39408 | -71.26707 | 16088 ft | 339 kts | 236° |
| 2026-05-05 13:41 | 41.38091 | -71.29310 | 16085 ft | 339 kts | 236° |
| 2026-05-05 13:41 | 41.36776 | -71.31914 | 16086 ft | 339 kts | 236° |
| 2026-05-05 13:41 | 41.35463 | -71.34518 | 16087 ft | 339 kts | 236° |
| 2026-05-05 13:41 | 41.34150 | -71.37123 | 16088 ft | 339 kts | 236° |
| 2026-05-05 13:42 | 41.32835 | -71.39730 | 16090 ft | 339 kts | 236° |
| 2026-05-05 13:42 | 41.31538 | -71.42303 | 16092 ft | 339 kts | 236° |
| 2026-05-05 13:42 | 41.30224 | -71.44907 | 16097 ft | 339 kts | 236° |
| 2026-05-05 13:42 | 41.28907 | -71.47508 | 16097 ft | 339 kts | 236° |
| 2026-05-05 13:43 | 41.27591 | -71.50104 | 16098 ft | 339 kts | 236° |
| 2026-05-05 13:43 | 41.26271 | -71.52701 | 16098 ft | 339 kts | 236° |
| 2026-05-05 13:43 | 41.24950 | -71.55294 | 16103 ft | 339 kts | 236° |
| 2026-05-05 13:43 | 41.23629 | -71.57890 | 16104 ft | 339 kts | 236° |
| 2026-05-05 13:44 | 41.22310 | -71.60485 | 16097 ft | 339 kts | 236° |
| 2026-05-05 13:44 | 41.20991 | -71.63078 | 16099 ft | 339 kts | 236° |
| 2026-05-05 13:44 | 41.19673 | -71.65671 | 16103 ft | 339 kts | 236° |
| 2026-05-05 13:44 | 41.18352 | -71.68267 | 16099 ft | 339 kts | 236° |
| 2026-05-05 13:45 | 41.17030 | -71.70860 | 16103 ft | 339 kts | 236° |
| 2026-05-05 13:45 | 41.15707 | -71.73450 | 16097 ft | 339 kts | 236° |
| 2026-05-05 13:45 | 41.14383 | -71.76036 | 16088 ft | 339 kts | 236° |
| 2026-05-05 13:45 | 41.13062 | -71.78627 | 16090 ft | 339 kts | 236° |
| 2026-05-05 13:46 | 41.11745 | -71.81223 | 16089 ft | 339 kts | 236° |
| 2026-05-05 13:46 | 41.10428 | -71.83816 | 16092 ft | 339 kts | 236° |
| 2026-05-05 13:46 | 41.09127 | -71.86375 | 16092 ft | 339 kts | 236° |
| 2026-05-05 13:46 | 41.07806 | -71.88965 | 16091 ft | 339 kts | 236° |
| 2026-05-05 13:47 | 41.06486 | -71.91552 | 16098 ft | 339 kts | 236° |
| 2026-05-05 13:47 | 41.05166 | -71.94141 | 16090 ft | 339 kts | 236° |
| 2026-05-05 13:47 | 41.03850 | -71.96735 | 16091 ft | 339 kts | 237° |
| 2026-05-05 13:47 | 41.02749 | -71.99491 | 16092 ft | 339 kts | 245° |
| 2026-05-05 13:48 | 41.01756 | -72.02325 | 16092 ft | 339 kts | 245° |
| 2026-05-05 13:48 | 41.00761 | -72.05154 | 16089 ft | 339 kts | 245° |
| 2026-05-05 13:48 | 40.99764 | -72.07985 | 16089 ft | 339 kts | 245° |
| 2026-05-05 13:48 | 40.98767 | -72.10814 | 16088 ft | 339 kts | 245° |
| 2026-05-05 13:49 | 40.97769 | -72.13636 | 16084 ft | 339 kts | 245° |
| 2026-05-05 13:49 | 40.96770 | -72.16459 | 16084 ft | 339 kts | 245° |
| 2026-05-05 13:49 | 40.95772 | -72.19280 | 16084 ft | 339 kts | 245° |
| 2026-05-05 13:49 | 40.94772 | -72.22102 | 16081 ft | 339 kts | 245° |
| 2026-05-05 13:50 | 40.93771 | -72.24921 | 16084 ft | 339 kts | 245° |
| 2026-05-05 13:50 | 40.92785 | -72.27699 | 16081 ft | 338 kts | 245° |
| 2026-05-05 13:50 | 40.91705 | -72.30461 | 16083 ft | 338 kts | 238° |
| 2026-05-05 13:50 | 40.90249 | -72.32903 | 16080 ft | 340 kts | 227° |
| 2026-05-05 13:51 | 40.88565 | -72.35101 | 16083 ft | 340 kts | 226° |
| 2026-05-05 13:51 | 40.86878 | -72.37299 | 16083 ft | 340 kts | 226° |
| 2026-05-05 13:51 | 40.85195 | -72.39501 | 16082 ft | 340 kts | 227° |
| 2026-05-05 13:51 | 40.83513 | -72.41701 | 16082 ft | 340 kts | 227° |
| 2026-05-05 13:52 | 40.81829 | -72.43901 | 16088 ft | 340 kts | 227° |
| 2026-05-05 13:52 | 40.80138 | -72.46093 | 16089 ft | 341 kts | 225° |
| 2026-05-05 13:52 | 40.78314 | -72.48103 | 16091 ft | 342 kts | 222° |
| 2026-05-05 13:52 | 40.76473 | -72.50094 | 16082 ft | 342 kts | 222° |
| 2026-05-05 13:53 | 40.74638 | -72.52085 | 16081 ft | 342 kts | 222° |
| 2026-05-05 13:53 | 40.72799 | -72.54080 | 16079 ft | 342 kts | 222° |
| 2026-05-05 13:53 | 40.70961 | -72.56071 | 16077 ft | 342 kts | 222° |
| 2026-05-05 13:53 | 40.69124 | -72.58060 | 16081 ft | 342 kts | 222° |
| 2026-05-05 13:54 | 40.67303 | -72.60075 | 16084 ft | 342 kts | 223° |
| 2026-05-05 13:54 | 40.65511 | -72.62123 | 16074 ft | 340 kts | 224° |
| 2026-05-05 13:54 | 40.63763 | -72.64153 | 16079 ft | 340 kts | 224° |
| 2026-05-05 13:54 | 40.61994 | -72.66214 | 16085 ft | 340 kts | 224° |
| 2026-05-05 13:55 | 40.60222 | -72.68270 | 16080 ft | 340 kts | 224° |
| 2026-05-05 13:55 | 40.58447 | -72.70321 | 16080 ft | 339 kts | 224° |
| 2026-05-05 13:55 | 40.56679 | -72.72360 | 16083 ft | 339 kts | 224° |
| 2026-05-05 13:55 | 40.54901 | -72.74404 | 16087 ft | 340 kts | 224° |
| 2026-05-05 13:56 | 40.53120 | -72.76448 | 16087 ft | 340 kts | 224° |
| 2026-05-05 13:56 | 40.51341 | -72.78486 | 16085 ft | 340 kts | 224° |
| 2026-05-05 13:56 | 40.49560 | -72.80523 | 16088 ft | 340 kts | 224° |
| 2026-05-05 13:56 | 40.47776 | -72.82560 | 16069 ft | 340 kts | 224° |
| 2026-05-05 13:57 | 40.45992 | -72.84596 | 16082 ft | 340 kts | 224° |
| 2026-05-05 13:57 | 40.44211 | -72.86626 | 16084 ft | 340 kts | 224° |
| 2026-05-05 13:57 | 40.42425 | -72.88662 | 16084 ft | 340 kts | 224° |
| 2026-05-05 13:57 | 40.40628 | -72.90708 | 16481 ft | 344 kts | 224° |
| 2026-05-05 13:58 | 40.38814 | -72.92771 | 17157 ft | 347 kts | 224° |
| 2026-05-05 13:58 | 40.36982 | -72.94857 | 17822 ft | 351 kts | 224° |
| 2026-05-05 13:58 | 40.35131 | -72.96967 | 18469 ft | 355 kts | 225° |
| 2026-05-05 13:58 | 40.33258 | -72.99104 | 19057 ft | 359 kts | 224° |
| 2026-05-05 13:59 | 40.29445 | -73.03440 | 20222 ft | 367 kts | 224° |
| 2026-05-05 13:59 | 40.27499 | -73.05641 | 20788 ft | 372 kts | 224° |
| 2026-05-05 14:00 | 40.23566 | -73.10084 | 21931 ft | 380 kts | 224° |
| 2026-05-05 14:00 | 40.22209 | -73.11618 | 22309 ft | 382 kts | 224° |
| 2026-05-05 14:00 | 40.19528 | -73.14645 | 23024 ft | 387 kts | 224° |
| 2026-05-05 14:00 | 40.17482 | -73.16956 | 23555 ft | 390 kts | 224° |
| 2026-05-05 14:01 | 40.15419 | -73.19287 | 23998 ft | 394 kts | 224° |
| 2026-05-05 14:01 | 40.13335 | -73.21638 | 24448 ft | 397 kts | 223° |
| 2026-05-05 14:01 | 40.11236 | -73.23998 | 24890 ft | 399 kts | 223° |
| 2026-05-05 14:01 | 40.09124 | -73.26369 | 25344 ft | 401 kts | 223° |
| 2026-05-05 14:02 | 40.06998 | -73.28758 | 25786 ft | 404 kts | 223° |
| 2026-05-05 14:02 | 40.04864 | -73.31154 | 25959 ft | 405 kts | 223° |
| 2026-05-05 14:02 | 40.02731 | -73.33547 | 25998 ft | 404 kts | 223° |
| 2026-05-05 14:02 | 40.00628 | -73.35905 | 25997 ft | 404 kts | 223° |
| 2026-05-05 14:03 | 39.98490 | -73.38295 | 25992 ft | 404 kts | 223° |
| 2026-05-05 14:03 | 39.96358 | -73.40672 | 25997 ft | 403 kts | 223° |
| 2026-05-05 14:03 | 39.94222 | -73.43055 | 25997 ft | 403 kts | 223° |
| 2026-05-05 14:03 | 39.92090 | -73.45435 | 25986 ft | 403 kts | 224° |
| 2026-05-05 14:04 | 39.89962 | -73.47810 | 25997 ft | 403 kts | 223° |
| 2026-05-05 14:04 | 39.87825 | -73.50187 | 26003 ft | 403 kts | 223° |
| 2026-05-05 14:04 | 39.85693 | -73.52555 | 25996 ft | 403 kts | 223° |
| 2026-05-05 14:04 | 39.83588 | -73.54891 | 25997 ft | 403 kts | 223° |
| 2026-05-05 14:05 | 39.81455 | -73.57263 | 26004 ft | 403 kts | 224° |
| 2026-05-05 14:05 | 39.79330 | -73.59635 | 26002 ft | 403 kts | 224° |
| 2026-05-05 14:05 | 39.77205 | -73.62009 | 26000 ft | 403 kts | 224° |
| 2026-05-05 14:05 | 39.75081 | -73.64382 | 26002 ft | 403 kts | 224° |
| 2026-05-05 14:06 | 39.72948 | -73.66750 | 25998 ft | 402 kts | 224° |
| 2026-05-05 14:06 | 39.70822 | -73.69105 | 26002 ft | 401 kts | 224° |
| 2026-05-05 14:06 | 39.68697 | -73.71454 | 26003 ft | 401 kts | 224° |
| 2026-05-05 14:06 | 39.66571 | -73.73803 | 26003 ft | 401 kts | 224° |
| 2026-05-05 14:07 | 39.64448 | -73.76147 | 26001 ft | 401 kts | 224° |
| 2026-05-05 14:07 | 39.62322 | -73.78500 | 26003 ft | 401 kts | 224° |
| 2026-05-05 14:07 | 39.60229 | -73.80818 | 25997 ft | 401 kts | 224° |
| 2026-05-05 14:07 | 39.58107 | -73.83163 | 26002 ft | 401 kts | 224° |
| 2026-05-05 14:08 | 39.55982 | -73.85504 | 26001 ft | 401 kts | 224° |
| 2026-05-05 14:08 | 39.53857 | -73.87840 | 26003 ft | 401 kts | 224° |
| 2026-05-05 14:08 | 39.51730 | -73.90179 | 26010 ft | 401 kts | 224° |
| 2026-05-05 14:08 | 39.49604 | -73.92516 | 26004 ft | 401 kts | 224° |
| 2026-05-05 14:09 | 39.47480 | -73.94855 | 26003 ft | 401 kts | 224° |
| 2026-05-05 14:09 | 39.45358 | -73.97197 | 26005 ft | 401 kts | 224° |
| 2026-05-05 14:09 | 39.43231 | -73.99541 | 26011 ft | 401 kts | 224° |
| 2026-05-05 14:09 | 39.41106 | -74.01871 | 26011 ft | 400 kts | 223° |
| 2026-05-05 14:10 | 39.38982 | -74.04192 | 26006 ft | 400 kts | 223° |
| 2026-05-05 14:10 | 39.36855 | -74.06515 | 26007 ft | 400 kts | 223° |
| 2026-05-05 14:10 | 39.34730 | -74.08833 | 26010 ft | 400 kts | 223° |
| 2026-05-05 14:10 | 39.32607 | -74.11152 | 26010 ft | 400 kts | 223° |
| 2026-05-05 14:11 | 39.30509 | -74.13439 | 26008 ft | 400 kts | 223° |
| 2026-05-05 14:11 | 39.28382 | -74.15750 | 26009 ft | 399 kts | 223° |
| 2026-05-05 14:11 | 39.26260 | -74.18059 | 26015 ft | 399 kts | 223° |
| 2026-05-05 14:11 | 39.24137 | -74.20371 | 26009 ft | 399 kts | 223° |
| 2026-05-05 14:12 | 39.22010 | -74.22683 | 26012 ft | 400 kts | 223° |
| 2026-05-05 14:12 | 39.19885 | -74.24993 | 26005 ft | 400 kts | 223° |
| 2026-05-05 14:12 | 39.17759 | -74.27304 | 25998 ft | 400 kts | 223° |
| 2026-05-05 14:12 | 39.15630 | -74.29616 | 26012 ft | 400 kts | 223° |
| 2026-05-05 14:13 | 39.13503 | -74.31920 | 26018 ft | 400 kts | 223° |
| 2026-05-05 14:13 | 39.11372 | -74.34226 | 26017 ft | 400 kts | 223° |
| 2026-05-05 14:13 | 39.09243 | -74.36528 | 26011 ft | 400 kts | 222° |
| 2026-05-05 14:13 | 39.07111 | -74.38829 | 26018 ft | 400 kts | 222° |
| 2026-05-05 14:14 | 39.04980 | -74.41127 | 26013 ft | 400 kts | 222° |
| 2026-05-05 14:14 | 39.02852 | -74.43426 | 26017 ft | 400 kts | 222° |
| 2026-05-05 14:14 | 39.00723 | -74.45726 | 26018 ft | 400 kts | 222° |
| 2026-05-05 14:14 | 38.98594 | -74.48026 | 26022 ft | 400 kts | 222° |
| 2026-05-05 14:15 | 38.96581 | -74.50410 | 26021 ft | 398 kts | 229° |
| 2026-05-05 14:15 | 38.94888 | -74.53210 | 26020 ft | 396 kts | 238° |
| 2026-05-05 14:15 | 38.93599 | -74.56327 | 26020 ft | 395 kts | 248° |
| 2026-05-05 14:15 | 38.92746 | -74.59680 | 26020 ft | 395 kts | 256° |
| 2026-05-05 14:16 | 38.92087 | -74.63104 | 26020 ft | 395 kts | 256° |
| 2026-05-05 14:16 | 38.91425 | -74.66527 | 26016 ft | 395 kts | 256° |
| 2026-05-05 14:16 | 38.90759 | -74.69950 | 26016 ft | 395 kts | 256° |
| 2026-05-05 14:16 | 38.90090 | -74.73369 | 26018 ft | 395 kts | 256° |
| 2026-05-05 14:17 | 38.89418 | -74.76808 | 25789 ft | 398 kts | 256° |
| 2026-05-05 14:17 | 38.88759 | -74.80248 | 25287 ft | 396 kts | 256° |
| 2026-05-05 14:17 | 38.88113 | -74.83672 | 24783 ft | 394 kts | 256° |
| 2026-05-05 14:17 | 38.87475 | -74.87079 | 24286 ft | 391 kts | 256° |
| 2026-05-05 14:18 | 38.86839 | -74.90460 | 23798 ft | 389 kts | 256° |
| 2026-05-05 14:18 | 38.86205 | -74.93830 | 23261 ft | 387 kts | 256° |
| 2026-05-05 14:18 | 38.85574 | -74.97161 | 22692 ft | 383 kts | 256° |
| 2026-05-05 14:18 | 38.84946 | -75.00462 | 22132 ft | 379 kts | 256° |
| 2026-05-05 14:19 | 38.84323 | -75.03721 | 21581 ft | 374 kts | 257° |
| 2026-05-05 14:19 | 38.83704 | -75.06946 | 21033 ft | 370 kts | 257° |
| 2026-05-05 14:19 | 38.83101 | -75.10093 | 20513 ft | 366 kts | 257° |
| 2026-05-05 14:19 | 38.82493 | -75.13250 | 19992 ft | 362 kts | 257° |
| 2026-05-05 14:20 | 38.81892 | -75.16368 | 19482 ft | 358 kts | 257° |
| 2026-05-05 14:20 | 38.81298 | -75.19454 | 18980 ft | 354 kts | 257° |
| 2026-05-05 14:20 | 38.80883 | -75.22543 | 18486 ft | 349 kts | 265° |
| 2026-05-05 14:20 | 38.80694 | -75.25633 | 17950 ft | 346 kts | 265° |
| 2026-05-05 14:21 | 38.80511 | -75.28687 | 17388 ft | 342 kts | 265° |
| 2026-05-05 14:21 | 38.80329 | -75.31718 | 16837 ft | 340 kts | 265° |
| 2026-05-05 14:21 | 38.80143 | -75.34725 | 16298 ft | 337 kts | 265° |
| 2026-05-05 14:21 | 38.79954 | -75.37706 | 15767 ft | 334 kts | 265° |
| 2026-05-05 14:22 | 38.79767 | -75.40662 | 15246 ft | 332 kts | 264° |
| 2026-05-05 14:22 | 38.79581 | -75.43596 | 14732 ft | 329 kts | 264° |
| 2026-05-05 14:22 | 38.79397 | -75.46467 | 14236 ft | 327 kts | 264° |
| 2026-05-05 14:22 | 38.79213 | -75.49362 | 13729 ft | 324 kts | 264° |
| 2026-05-05 14:23 | 38.79032 | -75.52228 | 13171 ft | 322 kts | 263° |
| 2026-05-05 14:23 | 38.78851 | -75.55079 | 12623 ft | 320 kts | 263° |
| 2026-05-05 14:23 | 38.78671 | -75.57915 | 12085 ft | 318 kts | 263° |
| 2026-05-05 14:23 | 38.78493 | -75.60733 | 11555 ft | 317 kts | 263° |
| 2026-05-05 14:24 | 38.78313 | -75.63541 | 11040 ft | 315 kts | 263° |
| 2026-05-05 14:24 | 38.78131 | -75.66333 | 10523 ft | 313 kts | 263° |
| 2026-05-05 14:24 | 38.77949 | -75.69107 | 10110 ft | 311 kts | 262° |
| 2026-05-05 14:24 | 38.77769 | -75.71851 | 10003 ft | 302 kts | 262° |
| 2026-05-05 14:25 | 38.77658 | -75.73585 | 10008 ft | 288 kts | 262° |
| 2026-05-05 14:25 | 38.77448 | -75.76847 | 10017 ft | 267 kts | 262° |
| 2026-05-05 14:25 | 38.77294 | -75.79198 | 10025 ft | 262 kts | 262° |
| 2026-05-05 14:25 | 38.77140 | -75.81511 | 10018 ft | 259 kts | 261° |
| 2026-05-05 14:26 | 38.77039 | -75.83032 | 10017 ft | 259 kts | 261° |
| 2026-05-05 14:26 | 38.76884 | -75.85330 | 10018 ft | 259 kts | 261° |
| 2026-05-05 14:26 | 38.76676 | -75.88403 | 10017 ft | 259 kts | 261° |
| 2026-05-05 14:26 | 38.76572 | -75.89923 | 10022 ft | 259 kts | 261° |
| 2026-05-05 14:27 | 38.76414 | -75.92224 | 10016 ft | 259 kts | 261° |
| 2026-05-05 14:27 | 38.76256 | -75.94522 | 10006 ft | 259 kts | 261° |
| 2026-05-05 14:27 | 38.76099 | -75.96823 | 9906 ft | 259 kts | 261° |
| 2026-05-05 14:27 | 38.75943 | -75.99122 | 9776 ft | 259 kts | 261° |
| 2026-05-05 14:28 | 38.75787 | -76.01417 | 9645 ft | 258 kts | 261° |
| 2026-05-05 14:28 | 38.75632 | -76.03709 | 9513 ft | 258 kts | 261° |
| 2026-05-05 14:28 | 38.75491 | -76.06001 | 9381 ft | 259 kts | 264° |
| 2026-05-05 14:28 | 38.75594 | -76.08306 | 9255 ft | 261 kts | 272° |
| 2026-05-05 14:29 | 38.75819 | -76.10611 | 9122 ft | 261 kts | 272° |
| 2026-05-05 14:29 | 38.76038 | -76.12920 | 8993 ft | 261 kts | 272° |
| 2026-05-05 14:29 | 38.76252 | -76.15196 | 8879 ft | 260 kts | 272° |
| 2026-05-05 14:29 | 38.76468 | -76.17496 | 8751 ft | 260 kts | 272° |
| 2026-05-05 14:30 | 38.76683 | -76.19795 | 8622 ft | 260 kts | 272° |
| 2026-05-05 14:30 | 38.76897 | -76.22090 | 8489 ft | 259 kts | 272° |
| 2026-05-05 14:30 | 38.77111 | -76.24383 | 8364 ft | 259 kts | 272° |
| 2026-05-05 14:30 | 38.77326 | -76.26681 | 8242 ft | 259 kts | 272° |
| 2026-05-05 14:31 | 38.77540 | -76.28975 | 8111 ft | 259 kts | 272° |
| 2026-05-05 14:31 | 38.77754 | -76.31267 | 7991 ft | 259 kts | 272° |
| 2026-05-05 14:31 | 38.77967 | -76.33564 | 7865 ft | 259 kts | 272° |
| 2026-05-05 14:31 | 38.78179 | -76.35851 | 7740 ft | 258 kts | 272° |
| 2026-05-05 14:32 | 38.78391 | -76.38141 | 7615 ft | 259 kts | 272° |
| 2026-05-05 14:32 | 38.78600 | -76.40398 | 7493 ft | 258 kts | 272° |
| 2026-05-05 14:32 | 38.78811 | -76.42684 | 7370 ft | 258 kts | 273° |
| 2026-05-05 14:32 | 38.79020 | -76.44967 | 7244 ft | 258 kts | 272° |
| 2026-05-05 14:33 | 38.79225 | -76.47248 | 7120 ft | 257 kts | 272° |
| 2026-05-05 14:33 | 38.79427 | -76.49527 | 6998 ft | 257 kts | 272° |
| 2026-05-05 14:33 | 38.79631 | -76.51805 | 6884 ft | 257 kts | 273° |
| 2026-05-05 14:33 | 38.79825 | -76.54089 | 6763 ft | 257 kts | 271° |
| 2026-05-05 14:34 | 38.79939 | -76.56368 | 6631 ft | 256 kts | 269° |
| 2026-05-05 14:34 | 38.80009 | -76.58611 | 6512 ft | 255 kts | 268° |
| 2026-05-05 14:34 | 38.80071 | -76.60883 | 6391 ft | 255 kts | 268° |
| 2026-05-05 14:34 | 38.80133 | -76.63150 | 6264 ft | 254 kts | 269° |
| 2026-05-05 14:35 | 38.80199 | -76.65420 | 6139 ft | 255 kts | 269° |
| 2026-05-05 14:35 | 38.80267 | -76.67700 | 6007 ft | 256 kts | 269° |
| 2026-05-05 14:35 | 38.80339 | -76.69974 | 5880 ft | 255 kts | 270° |
| 2026-05-05 14:35 | 38.80414 | -76.72237 | 5752 ft | 254 kts | 269° |
| 2026-05-05 14:36 | 38.80488 | -76.74502 | 5613 ft | 255 kts | 270° |
| 2026-05-05 14:36 | 38.80691 | -76.76763 | 5497 ft | 257 kts | 280° |
| 2026-05-05 14:36 | 38.81300 | -76.78926 | 5374 ft | 260 kts | 294° |
| 2026-05-05 14:36 | 38.82296 | -76.80867 | 5244 ft | 262 kts | 305° |
| 2026-05-05 14:37 | 38.83423 | -76.82660 | 5140 ft | 262 kts | 306° |
| 2026-05-05 14:37 | 38.84562 | -76.84485 | 5001 ft | 261 kts | 306° |
| 2026-05-05 14:37 | 38.85696 | -76.86310 | 4889 ft | 261 kts | 306° |
| 2026-05-05 14:37 | 38.86825 | -76.88126 | 4780 ft | 260 kts | 306° |
| 2026-05-05 14:38 | 38.87969 | -76.89920 | 4652 ft | 260 kts | 310° |
| 2026-05-05 14:38 | 38.89249 | -76.91563 | 4524 ft | 260 kts | 312° |
| 2026-05-05 14:38 | 38.90531 | -76.93195 | 4399 ft | 258 kts | 312° |
| 2026-05-05 14:38 | 38.91803 | -76.94816 | 4268 ft | 257 kts | 312° |
| 2026-05-05 14:39 | 38.93071 | -76.96435 | 4140 ft | 256 kts | 312° |
| 2026-05-05 14:39 | 38.94322 | -76.98036 | 4024 ft | 257 kts | 312° |
| 2026-05-05 14:39 | 38.95589 | -76.99658 | 4018 ft | 257 kts | 312° |
| 2026-05-05 14:39 | 38.96853 | -77.01278 | 4019 ft | 256 kts | 312° |
| 2026-05-05 14:40 | 38.98109 | -77.02891 | 4015 ft | 255 kts | 312° |
| 2026-05-05 14:40 | 38.99370 | -77.04510 | 4015 ft | 257 kts | 312° |
| 2026-05-05 14:40 | 39.00637 | -77.06135 | 4012 ft | 258 kts | 312° |
| 2026-05-05 14:40 | 39.01911 | -77.07767 | 4015 ft | 258 kts | 312° |
| 2026-05-05 14:41 | 39.03149 | -77.09353 | 4013 ft | 243 kts | 311° |
| 2026-05-05 14:41 | 39.03987 | -77.11098 | 4008 ft | 222 kts | 279° |
| 2026-05-05 14:41 | 39.03753 | -77.12924 | 4000 ft | 203 kts | 237° |
| 2026-05-05 14:41 | 39.02639 | -77.13941 | 4017 ft | 201 kts | 202° |
| 2026-05-05 14:42 | 39.01279 | -77.14374 | 4007 ft | 202 kts | 194° |
| 2026-05-05 14:42 | 38.99907 | -77.14675 | 4008 ft | 202 kts | 194° |
| 2026-05-05 14:42 | 38.98518 | -77.14975 | 4006 ft | 202 kts | 194° |
| 2026-05-05 14:42 | 38.97124 | -77.15194 | 4001 ft | 206 kts | 179° |
| 2026-05-05 14:43 | 38.95760 | -77.14556 | 4008 ft | 216 kts | 147° |
| 2026-05-05 14:43 | 38.94617 | -77.13279 | 4008 ft | 218 kts | 142° |
| 2026-05-05 14:43 | 38.93480 | -77.12000 | 4010 ft | 216 kts | 144° |
| 2026-05-05 14:43 | 38.92251 | -77.10873 | 3700 ft | 221 kts | 151° |
| 2026-05-05 14:44 | 38.91005 | -77.09618 | 3151 ft | 237 kts | 130° |
| 2026-05-05 14:44 | 38.90196 | -77.07723 | 2596 ft | 246 kts | 117° |
| 2026-05-05 14:44 | 38.89269 | -77.05893 | 1996 ft | 246 kts | 132° |
| 2026-05-05 14:44 | 38.88046 | -77.04277 | 945 ft | 256 kts | 150° |
| 2026-05-05 14:45 | 38.86415 | -77.03671 | 957 ft | 245 kts | 180° |
| 2026-05-05 14:45 | 38.84655 | -77.03752 | 1705 ft | 272 kts | 186° |
| 2026-05-05 14:45 | 38.82662 | -77.03770 | 2389 ft | 294 kts | 177° |
| 2026-05-05 14:45 | 38.80772 | -77.03400 | 3079 ft | 252 kts | 173° |
| 2026-05-05 14:46 | 38.79196 | -77.03026 | 3765 ft | 212 kts | 174° |
| 2026-05-05 14:46 | 38.77764 | -77.02685 | 4554 ft | 208 kts | 177° |
| 2026-05-05 14:46 | 38.76385 | -77.02973 | 5439 ft | 200 kts | 210° |
| 2026-05-05 14:46 | 38.75223 | -77.03898 | 6427 ft | 197 kts | 217° |
| 2026-05-05 14:47 | 38.74115 | -77.04904 | 6789 ft | 193 kts | 218° |
| 2026-05-05 14:47 | 38.73035 | -77.05906 | 6942 ft | 191 kts | 218° |
| 2026-05-05 14:47 | 38.71995 | -77.06946 | 6977 ft | 189 kts | 229° |
| 2026-05-05 14:47 | 38.71375 | -77.08418 | 6847 ft | 194 kts | 256° |
| 2026-05-05 14:48 | 38.71504 | -77.10163 | 6455 ft | 208 kts | 289° |
| 2026-05-05 14:48 | 38.72500 | -77.11588 | 5996 ft | 229 kts | 327° |
| 2026-05-05 14:48 | 38.74114 | -77.11967 | 5547 ft | 246 kts | 359° |
| 2026-05-05 14:48 | 38.75823 | -77.11803 | 5105 ft | 252 kts | 2° |
| 2026-05-05 14:49 | 38.77588 | -77.11575 | 4650 ft | 258 kts | 3° |
| 2026-05-05 14:49 | 38.79386 | -77.11329 | 4208 ft | 262 kts | 3° |
| 2026-05-05 14:49 | 38.81216 | -77.11083 | 3763 ft | 267 kts | 2° |
| 2026-05-05 14:49 | 38.83079 | -77.10844 | 3319 ft | 271 kts | 2° |
| 2026-05-05 14:50 | 38.84968 | -77.10607 | 2854 ft | 274 kts | 2° |
| 2026-05-05 14:50 | 38.86813 | -77.09934 | 2408 ft | 277 kts | 24° |
| 2026-05-05 14:50 | 38.88518 | -77.08854 | 1949 ft | 269 kts | 21° |
| 2026-05-05 14:50 | 38.90033 | -77.07524 | 1495 ft | 265 kts | 51° |
| 2026-05-05 14:51 | 38.90385 | -77.05509 | 2067 ft | 207 kts | 118° |
| 2026-05-05 14:51 | 38.89556 | -77.04370 | 2926 ft | 170 kts | 165° |
| 2026-05-05 14:51 | 38.88412 | -77.04533 | 2932 ft | 179 kts | 210° |
| 2026-05-05 14:51 | 38.87414 | -77.05599 | 2504 ft | 193 kts | 231° |
| 2026-05-05 14:52 | 38.86827 | -77.07116 | 2077 ft | 202 kts | 256° |
| 2026-05-05 14:52 | 38.86554 | -77.08986 | 1593 ft | 219 kts | 260° |
| 2026-05-05 14:52 | 38.86434 | -77.10954 | 1145 ft | 224 kts | 270° |
| 2026-05-05 14:52 | 38.86555 | -77.12975 | 828 ft | 233 kts | 273° |
| 2026-05-05 14:53 | 38.86717 | -77.15026 | 1711 ft | 220 kts | 274° |
| 2026-05-05 14:53 | 38.86852 | -77.16877 | 2345 ft | 200 kts | 274° |
| 2026-05-05 14:53 | 38.86976 | -77.18644 | 2617 ft | 197 kts | 274° |
| 2026-05-05 14:53 | 38.87358 | -77.20315 | 2773 ft | 193 kts | 299° |
| 2026-05-05 14:54 | 38.88292 | -77.21462 | 2778 ft | 186 kts | 328° |
| 2026-05-05 14:54 | 38.89569 | -77.21841 | 2730 ft | 197 kts | 359° |
| 2026-05-05 14:54 | 38.90903 | -77.21256 | 2665 ft | 212 kts | 33° |
| 2026-05-05 14:54 | 38.91792 | -77.19755 | 2392 ft | 216 kts | 71° |
| 2026-05-05 14:55 | 38.91871 | -77.17862 | 2127 ft | 212 kts | 102° |
| 2026-05-05 14:55 | 38.91639 | -77.15988 | 1846 ft | 213 kts | 101° |
| 2026-05-05 14:55 | 38.91432 | -77.14147 | 1580 ft | 210 kts | 102° |
| 2026-05-05 14:55 | 38.91228 | -77.12281 | 1294 ft | 212 kts | 102° |
| 2026-05-05 14:56 | 38.91027 | -77.10428 | 1097 ft | 205 kts | 100° |
| 2026-05-05 14:56 | 38.90670 | -77.08740 | 1011 ft | 188 kts | 115° |
| 2026-05-05 14:56 | 38.90247 | -77.07262 | 999 ft | 162 kts | 118° |
| 2026-05-05 14:56 | 38.89608 | -77.06229 | 999 ft | 143 kts | 147° |
| 2026-05-05 14:57 | 38.88896 | -77.05339 | 777 ft | 140 kts | 140° |
| 2026-05-05 14:57 | 38.88204 | -77.04515 | 579 ft | 133 kts | 149° |
| 2026-05-05 14:57 | 38.87345 | -77.04105 | 332 ft | 134 kts | 166° |
| 2026-05-05 14:57 | 38.86456 | -77.03912 | 160 ft | 125 kts | 176° |
| 2026-05-05 14:58 | 38.85665 | -77.03827 | 27 ft | 101 kts | 176° |
| 2026-05-05 14:58 | 38.84985 | -77.03758 | 24 ft | 86 kts | 175° |
| 2026-05-05 14:58 | 38.84705 | -77.03776 | 25 ft | 22 kts | 211° |
| 2026-05-05 14:58 | 38.84768 | -77.03881 | 24 ft | 22 kts | 355° |
| 2026-05-05 14:59 | 38.84888 | -77.03924 | 24 ft | 14 kts | 276° |
| 2026-05-05 14:59 | 38.84937 | -77.03960 | 24 ft | 9 kts | 0° |
| 2026-05-05 14:59 | 38.84994 | -77.03983 | 24 ft | 5 kts | 278° |
| 2026-05-05 14:59 | 38.84997 | -77.04029 | 24 ft | 0 kts | 265° |
| 2026-05-05 15:00 | 38.84998 | -77.04038 | 24 ft | 0 kts | 275° |
| 2026-05-05 15:00 | 38.84998 | -77.04040 | 24 ft | 0 kts | 277° |